Thursday, November 23, 2017, 1:22 PM EST
Back to Local

K1V4, St Johnsbury Fairbanks

Location: Saint Johnsbury, VT, United States Lat: 44.417
Local Time: 1:22 PM EST (18:22 GMT) Lon: -72.017
Time Zone: US/Eastern Elev: 695 ft

Show me the last for .
Show Coded

Time T Td Feel RH Dir Speed Gust Alt SLP Vis Weather Sky Remarks
2017-11-23 12:54 29 15 - 55 - - - 29.97 30.01 0 6-hr Min Temp (1pm): 19.9°F
6-hr Max Temp (1pm): 28.9°F
2017-11-23 11:54 27 15 - 60 - - - 30.01 30.04 0 None
2017-11-23 10:54 25 14 - 62 - - - 30.03 30.06 0 None
2017-11-23 09:54 23 13 - 64 - - - 30.03 30.07 0 None
2017-11-23 08:54 22 12 - 65 - - - 30.06 30.10 0 None
2017-11-23 07:54 20 13 - 73 - - - 30.06 30.10 0 None
2017-11-23 06:54 20 13 - 73 - - - 30.05 30.09 0 24-hr Precip Total (7am): 0.15"
6-hr Min Temp (7am): 19.9°F
6-hr Max Temp (7am): 26.1°F
2017-11-23 05:54 21 13 - 70 - - - 30.04 30.08 0 None
2017-11-23 04:54 22 16 - 77 - - - 30.03 30.07 0 None
2017-11-23 03:54 23 15 - 71 - - - 30.01 30.05 0 None
2017-11-23 02:54 24 15 - 68 - - - 30.01 30.05 0 None
2017-11-23 01:54 25 18 - 74 - - - 30.01 30.04 0 None
2017-11-23 00:54 26 19 - 74 - - - 29.99 30.02 0 6-hr Min Temp (1am): 26.1°F
6-hr Max Temp (1am): 35.1°F
2017-11-22 23:54 27 22 - 80 - - - 29.98 30.01 0 24-hr Min Temp (12am): 27.0°F
24-hr Max Temp (12am): 42.1°F
2017-11-22 22:54 30 25 - 81 - - - 29.97 30.00 0 None
2017-11-22 20:54 32 27 - 81 - - - 29.94 29.97 0 None
2017-11-22 19:54 33 29 - 84 - - - 29.94 29.97 0 None
2017-11-22 18:54 35 31 - 84 - - - 29.93 29.96 0 6-hr Precip Total (7pm): 0.06"
6-hr Min Temp (7pm): 34.0°F
6-hr Max Temp (7pm): 36.0°F
2017-11-22 17:54 34 33 - 96 - - - 29.91 29.94 0 None
2017-11-22 16:54 35 32 - 88 - - - 29.91 29.94 0 None
2017-11-22 15:54 36 35 - 96 - - - 29.90 29.92 0 6-hr Precip Total (4pm): 0.06"
2017-11-22 14:54 36 36 - 100 - - - 29.89 29.91 0 1-hr Precip Total: 0.03"
2017-11-22 13:54 36 36 - 100 - - - 29.87 29.89 0 1-hr Precip Total: 0.03"

Support USWX by starting your Amazon purchase here.